createdAt,value
2023-02-12T05:18:01.062Z,0.16
2023-02-12T05:20:29.550Z,0.27
2023-02-12T05:22:57.788Z,0.22
2023-02-12T05:25:26.609Z,0.20
2023-02-12T05:27:57.201Z,0.17
2023-02-12T05:30:25.721Z,0.15
2023-02-12T05:32:54.108Z,0.13
2023-02-12T05:35:22.382Z,0.13
2023-02-12T05:37:50.657Z,0.09
2023-02-12T05:40:19.215Z,0.05
2023-02-12T05:42:48.004Z,0.05
2023-02-12T05:45:16.301Z,0.00
2023-02-12T05:47:45.132Z,-0.01
2023-02-12T05:50:14.650Z,-0.02
2023-02-12T05:52:43.282Z,0.04
2023-02-12T05:55:11.764Z,0.01
2023-02-12T05:57:40.246Z,0.10
2023-02-12T06:00:09.758Z,0.12
2023-02-12T06:02:40.789Z,0.17
2023-02-12T06:05:09.099Z,0.28
2023-02-12T06:07:38.122Z,0.34
2023-02-12T06:10:07.465Z,0.41
2023-02-12T06:12:37.071Z,0.44
2023-02-12T06:15:06.272Z,0.45
2023-02-12T06:17:34.955Z,0.43
2023-02-12T06:20:03.057Z,0.41
2023-02-12T06:22:31.514Z,0.40
2023-02-12T06:25:00.923Z,0.37
2023-02-12T06:27:29.560Z,0.39
2023-02-12T06:29:57.739Z,0.38
2023-02-12T06:32:26.325Z,0.39
2023-02-12T06:34:54.809Z,0.33
2023-02-12T06:37:24.456Z,0.16
2023-02-12T06:39:52.917Z,0.13
2023-02-12T06:42:22.747Z,0.08
2023-02-12T06:44:52.988Z,0.05
2023-02-12T06:47:21.300Z,0.02
2023-02-12T06:49:50.092Z,-0.02
2023-02-12T06:52:21.384Z,-0.03
2023-02-12T06:54:50.180Z,-0.03
2023-02-12T06:57:18.654Z,-0.04
2023-02-12T06:59:49.125Z,0.02
2023-02-12T07:02:17.436Z,0.04
2023-02-12T07:04:46.045Z,0.07
2023-02-12T07:07:14.258Z,0.09
2023-02-12T07:09:42.804Z,0.05
2023-02-12T07:12:10.881Z,0.05
2023-02-12T07:14:40.382Z,0.12
2023-02-12T07:17:10.400Z,0.15
2023-02-12T07:19:41.195Z,0.18
2023-02-12T07:22:09.409Z,0.26
2023-02-12T07:24:39.466Z,0.26
2023-02-12T07:27:11.571Z,0.31
2023-02-12T07:29:40.081Z,0.36
2023-02-12T07:32:08.587Z,0.33
2023-02-12T07:34:38.106Z,0.31
2023-02-12T07:37:07.978Z,0.31
2023-02-12T07:39:36.225Z,0.28
2023-02-12T07:42:04.504Z,0.26
2023-02-12T07:44:36.495Z,0.31
2023-02-12T07:47:06.129Z,0.32
2023-02-12T07:49:35.203Z,0.39
2023-02-12T07:52:03.577Z,0.42
2023-02-12T07:54:32.598Z,0.43
2023-02-12T07:57:01.772Z,0.37
2023-02-12T07:59:32.300Z,0.32
2023-02-12T08:02:01.314Z,0.32
2023-02-12T08:04:30.026Z,0.35
2023-02-12T08:06:58.978Z,0.39
2023-02-12T08:09:28.633Z,0.42
2023-02-12T08:11:56.863Z,0.39
2023-02-12T08:14:27.961Z,0.43
2023-02-12T08:16:56.280Z,0.48
2023-02-12T08:19:26.633Z,0.55
2023-02-12T08:21:57.165Z,0.59
2023-02-12T08:24:25.705Z,0.63
2023-02-12T08:26:54.444Z,0.61
2023-02-12T08:29:24.741Z,0.68
2023-02-12T08:31:57.945Z,0.73
2023-02-12T08:34:28.777Z,0.74
2023-02-12T08:36:58.075Z,0.80
2023-02-12T08:39:27.562Z,0.83
2023-02-12T08:41:57.590Z,0.92
2023-02-12T08:44:25.768Z,0.97
2023-02-12T08:46:55.821Z,0.99
2023-02-12T08:49:26.719Z,1.02
2023-02-12T08:51:56.116Z,1.06
2023-02-12T08:54:29.411Z,1.06
2023-02-12T08:56:58.604Z,1.05
2023-02-12T08:59:26.889Z,1.03
2023-02-12T09:02:01.216Z,1.03
2023-02-12T09:04:31.036Z,1.01
2023-02-12T09:06:59.715Z,1.03
2023-02-12T09:09:28.237Z,1.03
2023-02-12T09:28:18.340Z,1.52
2023-02-12T09:30:46.715Z,1.90
2023-02-12T09:33:15.060Z,1.87
2023-02-12T09:35:43.817Z,1.82
2023-02-12T09:38:12.536Z,1.83
2023-02-12T09:40:57.908Z,1.88
2023-02-12T09:44:10.836Z,1.86
2023-02-12T09:46:47.999Z,1.77
2023-02-12T09:49:24.268Z,1.69
2023-02-12T09:51:54.263Z,1.62
2023-02-12T09:54:24.089Z,1.60
2023-02-12T09:56:59.633Z,1.57
2023-02-12T09:59:35.807Z,1.54
2023-02-12T10:02:15.898Z,1.52
2023-02-12T10:04:59.736Z,1.60
2023-02-12T10:07:39.243Z,1.69
2023-02-12T10:10:26.152Z,1.74
2023-02-12T10:13:33.080Z,1.81
2023-02-12T10:16:16.907Z,1.86
2023-02-12T10:19:03.023Z,1.91
2023-02-12T10:22:00.054Z,1.97
2023-02-12T10:24:50.114Z,2.03
2023-02-12T10:27:22.270Z,2.07
2023-02-12T10:29:50.452Z,2.10
2023-02-12T10:32:27.873Z,2.21
2023-02-12T10:34:56.345Z,2.31
2023-02-12T10:37:58.799Z,2.40
2023-02-12T10:40:30.038Z,2.49
2023-02-12T10:42:58.894Z,2.57
2023-02-12T10:45:31.937Z,2.65
2023-02-12T10:48:15.268Z,2.65
2023-02-12T10:51:08.929Z,2.65
2023-02-12T10:53:43.404Z,2.70
2023-02-12T10:56:12.069Z,2.70
2023-02-12T10:58:52.595Z,2.75
2023-02-12T11:01:22.842Z,2.79
2023-02-12T11:03:51.298Z,2.82
2023-02-12T11:06:24.723Z,2.84
2023-02-12T11:08:54.401Z,2.83
2023-02-12T11:11:31.234Z,2.80
2023-02-12T11:14:04.070Z,2.77
2023-02-12T11:16:37.937Z,2.77
2023-02-12T11:19:19.790Z,2.80
2023-02-12T11:21:48.043Z,2.86
2023-02-12T11:24:33.426Z,2.89
2023-02-12T11:27:20.538Z,2.91
2023-02-12T11:29:51.332Z,2.92
2023-02-12T11:32:20.167Z,2.99
2023-02-12T11:35:10.473Z,3.05
2023-02-12T11:37:43.440Z,3.12
2023-02-12T11:40:24.424Z,3.21
2023-02-12T11:42:57.723Z,3.31
2023-02-12T11:45:30.813Z,3.31
2023-02-12T11:47:59.081Z,3.31
2023-02-12T11:50:29.416Z,3.33
2023-02-12T11:53:03.442Z,3.36
2023-02-12T11:55:34.037Z,3.33
2023-02-12T11:58:21.002Z,3.28
2023-02-12T12:01:02.361Z,3.25
2023-02-12T12:03:57.047Z,3.17
2023-02-12T12:06:45.538Z,3.13
2023-02-12T12:09:18.381Z,3.16
2023-02-12T12:12:26.081Z,3.20
2023-02-12T12:15:16.987Z,3.23
2023-02-12T12:18:43.764Z,3.27
2023-02-12T12:21:18.973Z,3.28
2023-02-12T12:23:58.110Z,3.32
2023-02-12T12:26:30.170Z,3.36
2023-02-12T12:29:03.261Z,3.42
2023-02-12T12:31:38.734Z,3.46
2023-02-12T12:34:11.908Z,3.52
2023-02-12T12:36:58.648Z,3.54
2023-02-12T12:39:54.632Z,3.62
2023-02-12T12:43:05.335Z,3.71
2023-02-12T12:46:04.802Z,3.79
2023-02-12T12:48:39.951Z,3.79
2023-02-12T12:51:17.238Z,3.79
2023-02-12T12:54:11.217Z,3.87
2023-02-12T13:16:49.784Z,10.86
2023-02-12T13:19:44.890Z,11.35
2023-02-12T13:22:37.400Z,11.30
2023-02-12T13:25:21.451Z,11.16
2023-02-12T13:27:51.020Z,11.28
2023-02-12T13:30:19.657Z,11.74
2023-02-12T13:33:00.874Z,12.30
2023-02-12T13:35:34.860Z,12.71
2023-02-12T13:38:03.823Z,12.86
2023-02-12T13:40:32.512Z,12.96
2023-02-12T13:43:09.990Z,12.93
2023-02-12T13:46:14.019Z,12.82
2023-02-12T13:49:04.413Z,12.70
2023-02-12T13:51:39.155Z,12.64
2023-02-12T13:54:16.733Z,11.73
2023-02-12T13:56:51.883Z,11.34
2023-02-12T13:59:32.749Z,11.01
2023-02-12T14:02:24.029Z,10.93
2023-02-12T14:05:00.103Z,10.95
2023-02-12T14:07:45.822Z,11.17
2023-02-12T14:10:26.347Z,11.50
2023-02-12T14:12:58.855Z,11.60
2023-02-12T14:15:34.625Z,11.53
2023-02-12T14:18:03.179Z,11.35
2023-02-12T14:20:36.169Z,11.17
2023-02-12T14:23:32.997Z,10.59
2023-02-12T14:26:06.716Z,9.38
2023-02-12T14:28:46.800Z,8.32
2023-02-12T14:31:18.322Z,7.95
2023-02-12T14:33:51.272Z,8.13
2023-02-12T14:36:32.341Z,8.47
2023-02-12T14:39:28.004Z,8.46
2023-02-12T14:42:05.734Z,7.77
2023-02-12T14:44:58.349Z,6.98
2023-02-12T14:47:29.710Z,6.18
2023-02-12T14:50:07.322Z,5.65
2023-02-12T14:52:39.536Z,5.20
2023-02-12T14:55:18.733Z,4.79
2023-02-12T14:57:48.610Z,4.47
2023-02-12T15:00:16.700Z,4.20
2023-02-12T15:02:47.509Z,3.97
2023-02-12T15:05:24.368Z,3.79
2023-02-12T15:08:22.811Z,3.60
2023-02-12T15:10:54.307Z,3.43
2023-02-12T15:13:53.986Z,3.24
2023-02-12T15:16:40.139Z,3.11
2023-02-12T15:19:16.837Z,2.97
2023-02-12T15:21:46.528Z,2.86
2023-02-12T15:24:21.873Z,2.80
2023-02-12T15:26:55.057Z,2.72
2023-02-12T15:29:56.001Z,2.66
2023-02-12T15:32:28.683Z,2.58
2023-02-12T15:34:56.872Z,2.56
2023-02-12T15:37:26.982Z,2.51
2023-02-12T15:40:01.641Z,2.48
2023-02-12T15:42:41.860Z,2.42
2023-02-12T15:45:16.038Z,2.37
2023-02-12T15:47:44.774Z,2.32
2023-02-12T15:50:14.269Z,2.29
2023-02-12T15:52:46.495Z,2.23
2023-02-12T15:55:19.485Z,2.18
2023-02-12T15:57:52.608Z,2.14
2023-02-12T16:00:41.473Z,2.10
2023-02-12T16:03:27.681Z,2.06
2023-02-12T16:06:04.852Z,2.01
2023-02-12T16:08:35.840Z,1.97
2023-02-12T16:11:13.901Z,1.92
2023-02-12T16:13:50.520Z,1.89
2023-02-12T16:16:26.253Z,1.85
2023-02-12T16:19:05.770Z,1.83
2023-02-12T16:21:36.216Z,1.79
2023-02-12T16:24:04.946Z,1.76
2023-02-12T16:26:33.179Z,1.74
2023-02-12T16:29:03.690Z,1.71
2023-02-12T16:31:32.048Z,1.68
2023-02-12T16:34:01.263Z,1.66
2023-02-12T16:36:31.039Z,1.62
2023-02-12T16:39:04.576Z,1.59
2023-02-12T16:41:33.315Z,1.57
2023-02-12T16:44:01.569Z,1.54
2023-02-12T16:46:32.031Z,1.53
2023-02-12T16:49:00.891Z,1.53
2023-02-12T16:51:29.749Z,1.54
2023-02-12T16:54:02.225Z,1.51
2023-02-12T16:56:34.246Z,1.50
2023-02-12T16:59:02.888Z,1.47
2023-02-12T17:01:33.594Z,1.46
2023-02-12T17:04:05.062Z,1.43
2023-02-12T17:06:33.556Z,1.39
2023-02-12T17:09:01.723Z,1.37
2023-02-12T17:11:30.202Z,1.37
2023-02-12T17:13:58.557Z,1.35
2023-02-12T17:16:31.756Z,1.33
2023-02-12T17:19:06.708Z,1.30
2023-02-12T17:21:40.427Z,1.28
2023-02-12T17:24:20.271Z,1.25
2023-02-12T17:26:51.789Z,1.23
2023-02-12T17:29:21.622Z,1.19
2023-02-12T17:31:50.202Z,1.16
2023-02-12T17:34:18.598Z,1.14
2023-02-12T17:36:47.374Z,1.09
2023-02-12T17:39:16.488Z,1.08
2023-02-12T17:41:44.976Z,1.06
2023-02-12T17:44:15.123Z,1.05
2023-02-12T17:46:43.769Z,1.03
2023-02-12T17:49:12.444Z,1.01
2023-02-12T17:51:43.291Z,0.99
2023-02-12T17:54:12.496Z,0.97
2023-02-12T17:56:41.575Z,0.93
2023-02-12T17:59:10.283Z,0.90
2023-02-12T18:01:40.488Z,0.88
2023-02-12T18:04:14.283Z,0.87
2023-02-12T18:06:42.976Z,0.85
2023-02-12T18:09:11.261Z,0.83
2023-02-12T18:11:42.427Z,0.82
2023-02-12T18:14:11.494Z,0.80
2023-02-12T18:16:40.412Z,0.79
2023-02-12T18:19:08.744Z,0.77
2023-02-12T18:21:37.251Z,0.75
2023-02-12T18:24:06.245Z,0.73
2023-02-12T18:26:34.663Z,0.72
2023-02-12T18:29:02.958Z,0.69
2023-02-12T18:31:32.596Z,0.67
2023-02-12T18:34:01.187Z,0.66
2023-02-12T18:36:29.773Z,0.64
2023-02-12T18:39:01.172Z,0.60
2023-02-12T18:41:31.138Z,0.60
2023-02-12T18:43:59.466Z,0.57
2023-02-12T18:46:29.257Z,0.56
2023-02-12T18:48:58.557Z,0.54
2023-02-12T18:51:28.450Z,0.53
2023-02-12T18:54:05.364Z,0.51
2023-02-12T18:56:36.674Z,0.49
2023-02-12T18:59:05.096Z,0.47
2023-02-12T19:01:34.113Z,0.47
2023-02-12T19:04:04.614Z,0.50
2023-02-12T19:06:34.093Z,0.51
2023-02-12T19:09:05.060Z,0.52
2023-02-12T19:11:34.685Z,0.52
2023-02-12T19:14:03.617Z,0.50
2023-02-12T19:16:33.631Z,0.50
2023-02-12T19:19:03.197Z,0.49
2023-02-12T19:21:34.079Z,0.47
2023-02-12T19:24:03.348Z,0.44
2023-02-12T19:26:34.312Z,0.42
2023-02-12T19:29:03.116Z,0.40
2023-02-12T19:31:36.222Z,0.38
2023-02-12T19:34:14.678Z,0.36
2023-02-12T19:36:42.988Z,0.35
2023-02-12T19:39:14.341Z,0.34
2023-02-12T19:41:42.723Z,0.34
2023-02-12T19:44:13.746Z,0.34
2023-02-12T19:46:42.042Z,0.35
2023-02-12T19:49:18.713Z,0.37
2023-02-12T19:51:47.005Z,0.39
2023-02-12T19:54:16.132Z,0.42
2023-02-12T19:56:44.520Z,0.43
2023-02-12T19:59:13.619Z,0.45
2023-02-12T20:01:42.179Z,0.54
2023-02-12T20:04:14.644Z,0.53
2023-02-12T20:06:43.644Z,0.55
2023-02-12T20:09:13.122Z,0.56
2023-02-12T20:11:41.610Z,0.59
2023-02-12T20:14:11.765Z,0.61
2023-02-12T20:16:42.712Z,0.62
2023-02-12T20:19:16.727Z,0.62
2023-02-12T20:21:45.264Z,0.60
2023-02-12T20:24:13.441Z,0.57
2023-02-12T20:26:42.920Z,0.58
2023-02-12T20:29:11.214Z,0.57
2023-02-12T20:31:39.670Z,0.54
2023-02-12T20:34:10.870Z,0.53
2023-02-12T20:36:40.025Z,0.52
2023-02-12T20:39:10.364Z,0.50
2023-02-12T20:41:38.500Z,0.48
2023-02-12T20:44:08.870Z,0.45
2023-02-12T20:46:39.612Z,0.43
2023-02-12T20:49:08.704Z,0.41
2023-02-12T20:51:36.863Z,0.39
2023-02-12T20:54:05.139Z,0.37
2023-02-12T20:56:35.569Z,0.36
2023-02-12T20:59:04.879Z,0.35
2023-02-12T21:01:36.677Z,0.33
2023-02-12T21:04:09.759Z,0.33
2023-02-12T21:06:40.188Z,0.33
2023-02-12T21:09:12.392Z,0.35
2023-02-12T21:11:42.285Z,0.34
2023-02-12T21:14:21.991Z,0.34
2023-02-12T21:16:52.045Z,0.32
2023-02-12T21:19:20.912Z,0.30
2023-02-12T21:21:49.181Z,0.29
2023-02-12T21:24:21.819Z,0.26
2023-02-12T21:26:51.917Z,0.24
2023-02-12T21:29:22.277Z,0.22
2023-02-12T21:31:51.299Z,0.18
2023-02-12T21:34:21.230Z,0.16
2023-02-12T21:36:49.877Z,0.14
2023-02-12T21:39:27.537Z,0.13
2023-02-12T21:42:02.575Z,0.14
2023-02-12T21:44:32.931Z,0.12
2023-02-12T21:47:01.301Z,0.11
2023-02-12T21:49:31.045Z,0.10
2023-02-12T21:52:02.463Z,0.08
2023-02-12T21:54:31.441Z,0.05
2023-02-12T21:56:59.814Z,0.05
2023-02-12T21:59:31.743Z,0.04
2023-02-12T22:02:02.021Z,0.03
2023-02-12T22:04:32.352Z,0.02
2023-02-12T22:07:03.519Z,0.01
2023-02-12T22:09:35.456Z,-0.01
2023-02-12T22:12:04.761Z,-0.03
2023-02-12T22:14:33.032Z,-0.05
2023-02-12T22:17:01.980Z,-0.07
2023-02-12T22:19:30.313Z,-0.10
2023-02-12T22:21:58.676Z,-0.15
2023-02-12T22:24:26.951Z,-0.21
2023-02-12T22:26:56.080Z,-0.26
2023-02-12T22:29:25.245Z,-0.31
2023-02-12T22:31:53.669Z,-0.36
2023-02-12T22:34:22.391Z,-0.41
2023-02-12T22:36:50.594Z,-0.47
2023-02-12T22:39:18.970Z,-0.52
2023-02-12T22:41:47.346Z,-0.57
2023-02-12T22:44:16.060Z,-0.59
2023-02-12T22:46:44.409Z,-0.61
2023-02-12T22:49:12.854Z,-0.63
2023-02-12T22:51:41.639Z,-0.63
2023-02-12T22:54:14.896Z,-0.65
2023-02-12T22:56:43.361Z,-0.65
2023-02-12T22:59:12.165Z,-0.63
2023-02-12T23:01:40.582Z,-0.61
2023-02-12T23:04:14.221Z,-0.60
2023-02-12T23:06:42.506Z,-0.61
2023-02-12T23:09:13.951Z,-0.62
2023-02-12T23:11:42.840Z,-0.63
2023-02-12T23:14:12.144Z,-0.64
2023-02-12T23:16:42.376Z,-0.65
2023-02-12T23:19:11.604Z,-0.66
2023-02-12T23:21:40.526Z,-0.67
2023-02-12T23:24:12.221Z,-0.70
2023-02-12T23:26:40.601Z,-0.74
2023-02-12T23:29:09.298Z,-0.77
2023-02-12T23:31:41.504Z,-0.80
2023-02-12T23:34:10.368Z,-0.81
2023-02-12T23:36:38.740Z,-0.84
2023-02-12T23:39:07.633Z,-0.86
2023-02-12T23:41:35.903Z,-0.88
2023-02-12T23:44:05.452Z,-0.91
2023-02-12T23:46:33.865Z,-0.91
2023-02-12T23:49:02.212Z,-0.94
2023-02-12T23:51:31.032Z,-0.95
2023-02-12T23:53:59.299Z,-0.93
2023-02-12T23:56:27.930Z,-0.89
2023-02-12T23:58:57.491Z,-0.87
